首页
METAR-TAF:

METAR-TAF

机场 :

诺福克海军基地

諾福克, 弗吉尼亚州, 美国

纬度: 36-56-01N, 经度: 076-17-45W, 海拔: 4米

当前天气观测

该预报发布于1小时和8分钟前的03:59 UTC
风速4节,风向南转南东
温度 18°C
湿度 88%
气压 1007 hPa
能見度: 16.1公里
阴天层高于13000英尺

METAR: KNGU 110359Z 16004KT 10SM OVC130 18/16 A2973 RMK AO2 SLP067 T01830156 $

时间: 01:07 (05:07 UTC)

预报

预报有效从10日的 23点(UTC)到 11日的 23点(UTC)
风速8节,风向
能见度10公里或以上
少量云层高于1000英尺
散云层高于2000英尺
成为
从 11日的 02点(UTC)到 11日的 04点(UTC)
风速8节,风向东南
能见度10公里或以上
少量云层高于2000英尺
散云层高于3000英尺, 积雨云.
附近有雷暴
短暂存在
从 11日的 07点(UTC)到 11日的 13点(UTC)
风速15节,风向多变,有时为20节阵风
能見度: 4800
少量云层高于500英尺
散云层高于1000英尺
多云层高于2000英尺, 积雨云.
雷暴, 雨
成为
从 11日的 17点(UTC)到 11日的 19点(UTC)
风速8节,风向西南
能见度10公里或以上
天空无云

TAF: KNGU 1023/1123 10008KT 9999 FEW010 SCT020 QNH2978INS BECMG 1102/1104 14008KT 9999 VCTS FEW020 SCT030CB QNH2960INS TEMPO 1107/1113 VRB15G20KT 4800 TSRA FEW005 SCT010 BKN020CB BECMG 1117/1119 23008KT 9999 NSW SKC QNH2948INS T17/1109Z T26/1118Z FN00219

超过4000个机场的气象观测和天气预报(METAR&TAF报告)。

可查询的气象台以黄色和红色小点在地图上表示。

将鼠标移到小点上方,可查看气象台名称。

然后点击查看天气观测和预报。

如需切换地图:点击带黑十字的绿色按钮放大地图;点击带横线的绿色按钮缩小地图;或者点击绿色箭头查看邻近地区的地图。


METAR-TAF: